sensor_id;sensor_type;location;lat;lon;timestamp;temperature;humidity
6986;DHT22;3533;51.246;6.850;2023-02-01T00:01:59;19.60;35.40
6986;DHT22;3533;51.246;6.850;2023-02-01T00:04:25;19.60;35.30
6986;DHT22;3533;51.246;6.850;2023-02-01T00:06:51;19.60;35.30
6986;DHT22;3533;51.246;6.850;2023-02-01T00:09:16;19.60;35.30
6986;DHT22;3533;51.246;6.850;2023-02-01T00:11:42;19.60;35.40
6986;DHT22;3533;51.246;6.850;2023-02-01T00:14:07;19.60;35.40
6986;DHT22;3533;51.246;6.850;2023-02-01T00:16:33;19.60;35.40
6986;DHT22;3533;51.246;6.850;2023-02-01T00:19:06;19.60;35.50
6986;DHT22;3533;51.246;6.850;2023-02-01T00:21:32;19.60;35.30
6986;DHT22;3533;51.246;6.850;2023-02-01T00:23:58;19.60;35.40
6986;DHT22;3533;51.246;6.850;2023-02-01T00:26:36;19.60;35.50
6986;DHT22;3533;51.246;6.850;2023-02-01T00:29:05;19.60;35.40
6986;DHT22;3533;51.246;6.850;2023-02-01T00:31:31;19.60;35.50
6986;DHT22;3533;51.246;6.850;2023-02-01T00:33:57;19.60;35.50
6986;DHT22;3533;51.246;6.850;2023-02-01T00:36:22;19.50;35.30
6986;DHT22;3533;51.246;6.850;2023-02-01T00:38:48;19.60;35.50
6986;DHT22;3533;51.246;6.850;2023-02-01T00:41:16;19.50;35.30
6986;DHT22;3533;51.246;6.850;2023-02-01T00:43:43;19.60;35.50
6986;DHT22;3533;51.246;6.850;2023-02-01T00:46:09;19.50;35.40
6986;DHT22;3533;51.246;6.850;2023-02-01T00:48:35;19.50;35.30
6986;DHT22;3533;51.246;6.850;2023-02-01T00:51:09;19.60;35.40
6986;DHT22;3533;51.246;6.850;2023-02-01T00:53:35;19.60;35.40
6986;DHT22;3533;51.246;6.850;2023-02-01T00:56:01;19.50;35.30
6986;DHT22;3533;51.246;6.850;2023-02-01T00:58:27;19.60;35.40
6986;DHT22;3533;51.246;6.850;2023-02-01T01:01:17;19.60;35.30
6986;DHT22;3533;51.246;6.850;2023-02-01T01:03:48;19.50;35.30
6986;DHT22;3533;51.246;6.850;2023-02-01T01:06:18;19.60;35.40
6986;DHT22;3533;51.246;6.850;2023-02-01T01:08:45;19.60;35.40
6986;DHT22;3533;51.246;6.850;2023-02-01T01:11:21;19.50;35.30
6986;DHT22;3533;51.246;6.850;2023-02-01T01:13:48;19.50;35.30
6986;DHT22;3533;51.246;6.850;2023-02-01T01:16:14;19.50;35.30
6986;DHT22;3533;51.246;6.850;2023-02-01T01:18:40;19.50;35.40
6986;DHT22;3533;51.246;6.850;2023-02-01T01:21:07;19.50;35.30
6986;DHT22;3533;51.246;6.850;2023-02-01T01:23:34;19.50;35.30
6986;DHT22;3533;51.246;6.850;2023-02-01T01:26:00;19.50;35.30
6986;DHT22;3533;51.246;6.850;2023-02-01T01:28:25;19.50;35.30
6986;DHT22;3533;51.246;6.850;2023-02-01T01:30:51;19.50;36.10
6986;DHT22;3533;51.246;6.850;2023-02-01T01:33:17;19.50;35.40
6986;DHT22;3533;51.246;6.850;2023-02-01T01:35:42;19.50;35.50
6986;DHT22;3533;51.246;6.850;2023-02-01T01:38:10;19.50;35.40
6986;DHT22;3533;51.246;6.850;2023-02-01T01:40:36;19.50;35.40
6986;DHT22;3533;51.246;6.850;2023-02-01T01:43:01;19.50;35.40
6986;DHT22;3533;51.246;6.850;2023-02-01T01:45:33;19.50;35.50
6986;DHT22;3533;51.246;6.850;2023-02-01T01:48:07;19.50;35.40
6986;DHT22;3533;51.246;6.850;2023-02-01T01:50:38;19.50;35.40
6986;DHT22;3533;51.246;6.850;2023-02-01T01:53:07;19.50;35.50
6986;DHT22;3533;51.246;6.850;2023-02-01T01:55:36;19.50;35.50
6986;DHT22;3533;51.246;6.850;2023-02-01T01:58:08;19.50;35.50
6986;DHT22;3533;51.246;6.850;2023-02-01T02:00:35;19.50;35.50
6986;DHT22;3533;51.246;6.850;2023-02-01T02:03:08;19.50;35.50
6986;DHT22;3533;51.246;6.850;2023-02-01T02:05:37;19.50;35.50
6986;DHT22;3533;51.246;6.850;2023-02-01T02:08:03;19.50;35.50
6986;DHT22;3533;51.246;6.850;2023-02-01T02:10:29;19.50;35.50
6986;DHT22;3533;51.246;6.850;2023-02-01T02:13:16;19.50;35.50
6986;DHT22;3533;51.246;6.850;2023-02-01T02:15:50;19.50;35.50
6986;DHT22;3533;51.246;6.850;2023-02-01T02:21:14;19.50;35.50
6986;DHT22;3533;51.246;6.850;2023-02-01T02:29:30;19.40;35.40
6986;DHT22;3533;51.246;6.850;2023-02-01T02:32:26;19.50;35.60
6986;DHT22;3533;51.246;6.850;2023-02-01T02:35:19;19.40;35.40
6986;DHT22;3533;51.246;6.850;2023-02-01T02:37:55;19.40;35.40
6986;DHT22;3533;51.246;6.850;2023-02-01T02:40:41;19.40;35.50
6986;DHT22;3533;51.246;6.850;2023-02-01T02:43:20;19.40;35.50
6986;DHT22;3533;51.246;6.850;2023-02-01T02:49:12;19.40;35.50
6986;DHT22;3533;51.246;6.850;2023-02-01T02:51:50;19.40;35.50
6986;DHT22;3533;51.246;6.850;2023-02-01T02:54:40;19.40;35.50
6986;DHT22;3533;51.246;6.850;2023-02-01T03:00:12;19.40;35.50
6986;DHT22;3533;51.246;6.850;2023-02-01T03:02:57;19.40;35.50
6986;DHT22;3533;51.246;6.850;2023-02-01T03:05:45;19.40;35.50
6986;DHT22;3533;51.246;6.850;2023-02-01T03:08:14;19.40;35.50
6986;DHT22;3533;51.246;6.850;2023-02-01T03:18:46;19.40;35.50
6986;DHT22;3533;51.246;6.850;2023-02-01T03:21:29;19.40;35.50
6986;DHT22;3533;51.246;6.850;2023-02-01T03:24:00;19.40;35.50
6986;DHT22;3533;51.246;6.850;2023-02-01T03:26:29;19.40;35.50
6986;DHT22;3533;51.246;6.850;2023-02-01T03:29:00;19.40;35.60
6986;DHT22;3533;51.246;6.850;2023-02-01T03:31:28;19.40;35.50
6986;DHT22;3533;51.246;6.850;2023-02-01T03:33:54;19.40;35.50
6986;DHT22;3533;51.246;6.850;2023-02-01T03:39:15;19.40;35.50
6986;DHT22;3533;51.246;6.850;2023-02-01T03:41:45;19.40;35.60
6986;DHT22;3533;51.246;6.850;2023-02-01T03:44:16;19.40;35.60
6986;DHT22;3533;51.246;6.850;2023-02-01T03:47:05;19.40;35.60
6986;DHT22;3533;51.246;6.850;2023-02-01T03:49:41;19.40;35.50
6986;DHT22;3533;51.246;6.850;2023-02-01T03:52:16;19.40;35.60
6986;DHT22;3533;51.246;6.850;2023-02-01T03:54:43;19.40;35.50
6986;DHT22;3533;51.246;6.850;2023-02-01T03:57:13;19.40;35.60
6986;DHT22;3533;51.246;6.850;2023-02-01T03:59:44;19.40;35.60
6986;DHT22;3533;51.246;6.850;2023-02-01T04:02:10;19.40;35.60
6986;DHT22;3533;51.246;6.850;2023-02-01T04:04:36;19.40;35.60
6986;DHT22;3533;51.246;6.850;2023-02-01T04:07:02;19.40;35.50
6986;DHT22;3533;51.246;6.850;2023-02-01T04:09:27;19.40;35.60
6986;DHT22;3533;51.246;6.850;2023-02-01T04:11:53;19.40;35.60
6986;DHT22;3533;51.246;6.850;2023-02-01T04:14:19;19.40;35.60
6986;DHT22;3533;51.246;6.850;2023-02-01T04:16:44;19.40;35.50
6986;DHT22;3533;51.246;6.850;2023-02-01T04:19:10;19.40;35.60
6986;DHT22;3533;51.246;6.850;2023-02-01T04:21:36;19.40;35.60
6986;DHT22;3533;51.246;6.850;2023-02-01T04:24:01;19.40;35.60
6986;DHT22;3533;51.246;6.850;2023-02-01T04:26:27;19.40;35.60
6986;DHT22;3533;51.246;6.850;2023-02-01T04:28:53;19.40;35.60
6986;DHT22;3533;51.246;6.850;2023-02-01T04:31:18;19.40;35.60
6986;DHT22;3533;51.246;6.850;2023-02-01T04:33:54;19.40;35.60
6986;DHT22;3533;51.246;6.850;2023-02-01T04:36:21;19.40;35.60
6986;DHT22;3533;51.246;6.850;2023-02-01T04:38:48;19.40;35.60
6986;DHT22;3533;51.246;6.850;2023-02-01T04:41:14;19.40;35.60
6986;DHT22;3533;51.246;6.850;2023-02-01T04:43:40;19.40;35.60
6986;DHT22;3533;51.246;6.850;2023-02-01T04:46:06;19.40;35.60
6986;DHT22;3533;51.246;6.850;2023-02-01T04:48:31;19.40;35.60
6986;DHT22;3533;51.246;6.850;2023-02-01T04:50:57;19.40;35.50
6986;DHT22;3533;51.246;6.850;2023-02-01T04:53:22;19.40;35.50
6986;DHT22;3533;51.246;6.850;2023-02-01T04:55:49;19.40;35.50
6986;DHT22;3533;51.246;6.850;2023-02-01T04:58:15;19.40;35.60
6986;DHT22;3533;51.246;6.850;2023-02-01T05:00:41;19.40;35.50
6986;DHT22;3533;51.246;6.850;2023-02-01T05:03:07;19.40;35.40
6986;DHT22;3533;51.246;6.850;2023-02-01T05:05:32;19.50;36.20
6986;DHT22;3533;51.246;6.850;2023-02-01T05:07:58;19.50;35.30
6986;DHT22;3533;51.246;6.850;2023-02-01T05:10:23;19.50;35.30
6986;DHT22;3533;51.246;6.850;2023-02-01T05:12:49;19.50;35.20
6986;DHT22;3533;51.246;6.850;2023-02-01T05:15:34;19.50;35.20
6986;DHT22;3533;51.246;6.850;2023-02-01T05:17:59;19.50;35.20
6986;DHT22;3533;51.246;6.850;2023-02-01T05:20:25;19.50;35.20
6986;DHT22;3533;51.246;6.850;2023-02-01T05:22:51;19.50;35.10
6986;DHT22;3533;51.246;6.850;2023-02-01T05:25:16;19.50;35.10
6986;DHT22;3533;51.246;6.850;2023-02-01T05:27:42;19.50;35.10
6986;DHT22;3533;51.246;6.850;2023-02-01T05:30:08;19.50;35.10
6986;DHT22;3533;51.246;6.850;2023-02-01T05:32:34;19.60;35.20
6986;DHT22;3533;51.246;6.850;2023-02-01T05:34:59;19.60;35.20
6986;DHT22;3533;51.246;6.850;2023-02-01T05:37:25;19.60;35.20
6986;DHT22;3533;51.246;6.850;2023-02-01T05:39:51;19.60;35.10
6986;DHT22;3533;51.246;6.850;2023-02-01T05:42:16;19.60;35.10
6986;DHT22;3533;51.246;6.850;2023-02-01T05:44:42;19.60;35.20
6986;DHT22;3533;51.246;6.850;2023-02-01T05:47:08;19.60;35.10
6986;DHT22;3533;51.246;6.850;2023-02-01T05:49:33;19.60;35.20
6986;DHT22;3533;51.246;6.850;2023-02-01T05:51:59;19.70;35.30
6986;DHT22;3533;51.246;6.850;2023-02-01T05:54:24;19.70;35.30
6986;DHT22;3533;51.246;6.850;2023-02-01T05:56:50;19.70;35.30
6986;DHT22;3533;51.246;6.850;2023-02-01T05:59:15;19.70;35.30
6986;DHT22;3533;51.246;6.850;2023-02-01T06:01:41;19.70;35.30
6986;DHT22;3533;51.246;6.850;2023-02-01T06:04:06;19.70;35.40
6986;DHT22;3533;51.246;6.850;2023-02-01T06:06:32;19.70;35.40
6986;DHT22;3533;51.246;6.850;2023-02-01T06:08:58;19.70;35.40
6986;DHT22;3533;51.246;6.850;2023-02-01T06:11:23;19.70;35.40
6986;DHT22;3533;51.246;6.850;2023-02-01T06:13:49;19.70;35.40
6986;DHT22;3533;51.246;6.850;2023-02-01T06:16:14;19.70;35.40
6986;DHT22;3533;51.246;6.850;2023-02-01T06:18:40;19.70;35.40
6986;DHT22;3533;51.246;6.850;2023-02-01T06:21:07;19.70;35.40
6986;DHT22;3533;51.246;6.850;2023-02-01T06:23:33;19.80;35.50
6986;DHT22;3533;51.246;6.850;2023-02-01T06:26:06;19.80;35.50
6986;DHT22;3533;51.246;6.850;2023-02-01T06:28:33;19.80;35.30
6986;DHT22;3533;51.246;6.850;2023-02-01T06:31:03;19.80;35.30
6986;DHT22;3533;51.246;6.850;2023-02-01T06:33:32;19.80;35.30
6986;DHT22;3533;51.246;6.850;2023-02-01T06:35:58;19.80;35.30
6986;DHT22;3533;51.246;6.850;2023-02-01T06:38:25;19.80;35.30
6986;DHT22;3533;51.246;6.850;2023-02-01T06:40:55;19.80;35.40
6986;DHT22;3533;51.246;6.850;2023-02-01T06:43:22;19.80;35.40
6986;DHT22;3533;51.246;6.850;2023-02-01T06:45:48;19.80;35.30
6986;DHT22;3533;51.246;6.850;2023-02-01T06:48:14;19.80;35.40
6986;DHT22;3533;51.246;6.850;2023-02-01T06:50:39;19.80;35.40
6986;DHT22;3533;51.246;6.850;2023-02-01T06:53:05;19.80;35.40
6986;DHT22;3533;51.246;6.850;2023-02-01T06:55:30;19.80;35.50
6986;DHT22;3533;51.246;6.850;2023-02-01T06:57:56;19.80;35.50
6986;DHT22;3533;51.246;6.850;2023-02-01T07:00:22;19.80;35.50
6986;DHT22;3533;51.246;6.850;2023-02-01T07:02:48;19.80;35.40
6986;DHT22;3533;51.246;6.850;2023-02-01T07:05:14;19.80;35.50
6986;DHT22;3533;51.246;6.850;2023-02-01T07:07:40;19.90;35.70
6986;DHT22;3533;51.246;6.850;2023-02-01T07:10:06;19.90;35.60
6986;DHT22;3533;51.246;6.850;2023-02-01T07:12:31;19.80;35.50
6986;DHT22;3533;51.246;6.850;2023-02-01T07:14:57;19.90;35.60
6986;DHT22;3533;51.246;6.850;2023-02-01T07:17:23;19.80;35.50
6986;DHT22;3533;51.246;6.850;2023-02-01T07:19:48;19.90;35.60
6986;DHT22;3533;51.246;6.850;2023-02-01T07:22:16;19.90;35.60
6986;DHT22;3533;51.246;6.850;2023-02-01T07:24:42;19.90;35.60
6986;DHT22;3533;51.246;6.850;2023-02-01T07:27:08;19.90;35.60
6986;DHT22;3533;51.246;6.850;2023-02-01T07:29:33;19.90;35.60
6986;DHT22;3533;51.246;6.850;2023-02-01T07:31:59;19.90;35.60
6986;DHT22;3533;51.246;6.850;2023-02-01T07:34:25;19.90;35.60
6986;DHT22;3533;51.246;6.850;2023-02-01T07:36:51;19.90;35.60
6986;DHT22;3533;51.246;6.850;2023-02-01T07:39:16;19.90;35.60
6986;DHT22;3533;51.246;6.850;2023-02-01T07:41:42;19.90;35.60
6986;DHT22;3533;51.246;6.850;2023-02-01T07:44:07;19.90;35.60
6986;DHT22;3533;51.246;6.850;2023-02-01T07:46:33;19.90;35.60
6986;DHT22;3533;51.246;6.850;2023-02-01T07:48:58;19.90;35.60
6986;DHT22;3533;51.246;6.850;2023-02-01T07:51:24;19.90;35.60
6986;DHT22;3533;51.246;6.850;2023-02-01T07:53:49;19.90;35.60
6986;DHT22;3533;51.246;6.850;2023-02-01T07:56:19;19.90;35.60
6986;DHT22;3533;51.246;6.850;2023-02-01T07:58:53;19.90;35.60
6986;DHT22;3533;51.246;6.850;2023-02-01T08:01:22;19.90;35.50
6986;DHT22;3533;51.246;6.850;2023-02-01T08:03:58;19.90;35.50
6986;DHT22;3533;51.246;6.850;2023-02-01T08:06:28;19.90;35.50
6986;DHT22;3533;51.246;6.850;2023-02-01T08:08:54;19.90;35.50
6986;DHT22;3533;51.246;6.850;2023-02-01T08:11:21;19.90;35.50
6986;DHT22;3533;51.246;6.850;2023-02-01T08:13:47;19.90;35.50
6986;DHT22;3533;51.246;6.850;2023-02-01T08:16:14;19.90;35.50
6986;DHT22;3533;51.246;6.850;2023-02-01T08:18:40;19.90;35.50
6986;DHT22;3533;51.246;6.850;2023-02-01T08:21:14;19.90;35.60
6986;DHT22;3533;51.246;6.850;2023-02-01T08:23:41;19.90;35.60
6986;DHT22;3533;51.246;6.850;2023-02-01T08:26:23;19.90;35.60
6986;DHT22;3533;51.246;6.850;2023-02-01T08:28:54;19.90;35.60
6986;DHT22;3533;51.246;6.850;2023-02-01T08:31:21;19.90;35.60
6986;DHT22;3533;51.246;6.850;2023-02-01T08:33:56;19.90;35.70
6986;DHT22;3533;51.246;6.850;2023-02-01T08:36:23;19.90;35.70
6986;DHT22;3533;51.246;6.850;2023-02-01T08:38:49;19.90;35.70
6986;DHT22;3533;51.246;6.850;2023-02-01T08:41:17;19.90;35.70
6986;DHT22;3533;51.246;6.850;2023-02-01T08:43:44;19.90;36.30
6986;DHT22;3533;51.246;6.850;2023-02-01T08:46:10;19.90;35.70
6986;DHT22;3533;51.246;6.850;2023-02-01T08:48:37;19.90;35.80
6986;DHT22;3533;51.246;6.850;2023-02-01T08:51:08;19.90;35.80
6986;DHT22;3533;51.246;6.850;2023-02-01T08:53:34;19.90;35.70
6986;DHT22;3533;51.246;6.850;2023-02-01T08:56:01;19.80;35.60
6986;DHT22;3533;51.246;6.850;2023-02-01T08:58:26;19.80;35.70
6986;DHT22;3533;51.246;6.850;2023-02-01T09:00:52;19.80;35.70
6986;DHT22;3533;51.246;6.850;2023-02-01T09:03:18;19.80;35.70
6986;DHT22;3533;51.246;6.850;2023-02-01T09:05:43;19.80;35.60
6986;DHT22;3533;51.246;6.850;2023-02-01T09:08:10;19.80;35.70
6986;DHT22;3533;51.246;6.850;2023-02-01T09:10:38;19.80;35.60
6986;DHT22;3533;51.246;6.850;2023-02-01T09:13:04;19.80;35.60
6986;DHT22;3533;51.246;6.850;2023-02-01T09:15:30;19.80;35.60
6986;DHT22;3533;51.246;6.850;2023-02-01T09:17:56;19.80;35.70
6986;DHT22;3533;51.246;6.850;2023-02-01T09:20:21;19.80;35.60
6986;DHT22;3533;51.246;6.850;2023-02-01T09:22:50;19.80;35.60
6986;DHT22;3533;51.246;6.850;2023-02-01T09:25:16;19.80;35.70
6986;DHT22;3533;51.246;6.850;2023-02-01T09:27:42;19.80;35.60
6986;DHT22;3533;51.246;6.850;2023-02-01T09:30:08;19.80;35.60
6986;DHT22;3533;51.246;6.850;2023-02-01T09:32:33;19.70;35.50
6986;DHT22;3533;51.246;6.850;2023-02-01T09:34:59;19.80;35.60
6986;DHT22;3533;51.246;6.850;2023-02-01T09:37:24;19.70;35.50
6986;DHT22;3533;51.246;6.850;2023-02-01T09:39:51;19.70;35.50
6986;DHT22;3533;51.246;6.850;2023-02-01T09:47:35;19.70;35.50
6986;DHT22;3533;51.246;6.850;2023-02-01T09:50:05;19.70;35.50
6986;DHT22;3533;51.246;6.850;2023-02-01T09:52:44;19.70;35.60
6986;DHT22;3533;51.246;6.850;2023-02-01T09:55:16;19.70;35.50
6986;DHT22;3533;51.246;6.850;2023-02-01T09:58:05;19.70;35.60
6986;DHT22;3533;51.246;6.850;2023-02-01T10:00:38;19.70;35.50
6986;DHT22;3533;51.246;6.850;2023-02-01T10:03:04;19.70;35.50
6986;DHT22;3533;51.246;6.850;2023-02-01T10:08:52;19.70;35.50
6986;DHT22;3533;51.246;6.850;2023-02-01T10:14:46;19.70;35.50
6986;DHT22;3533;51.246;6.850;2023-02-01T10:26:24;19.70;35.50
6986;DHT22;3533;51.246;6.850;2023-02-01T10:28:53;19.70;35.50
6986;DHT22;3533;51.246;6.850;2023-02-01T10:31:23;19.70;35.50
6986;DHT22;3533;51.246;6.850;2023-02-01T10:33:55;19.70;35.50
6986;DHT22;3533;51.246;6.850;2023-02-01T10:36:28;19.70;35.50
6986;DHT22;3533;51.246;6.850;2023-02-01T10:38:55;19.70;35.50
6986;DHT22;3533;51.246;6.850;2023-02-01T10:41:22;19.70;35.40
6986;DHT22;3533;51.246;6.850;2023-02-01T10:43:54;19.70;35.40
6986;DHT22;3533;51.246;6.850;2023-02-01T10:46:22;19.70;35.50
6986;DHT22;3533;51.246;6.850;2023-02-01T10:48:50;19.70;35.40
6986;DHT22;3533;51.246;6.850;2023-02-01T10:51:22;19.70;35.50
6986;DHT22;3533;51.246;6.850;2023-02-01T10:53:57;19.70;35.40
6986;DHT22;3533;51.246;6.850;2023-02-01T10:56:25;19.70;35.40
6986;DHT22;3533;51.246;6.850;2023-02-01T10:58:52;19.70;35.40
6986;DHT22;3533;51.246;6.850;2023-02-01T11:01:36;19.70;35.40
6986;DHT22;3533;51.246;6.850;2023-02-01T11:04:05;19.70;35.50
6986;DHT22;3533;51.246;6.850;2023-02-01T11:06:37;19.70;35.40
6986;DHT22;3533;51.246;6.850;2023-02-01T11:11:32;19.70;35.40
6986;DHT22;3533;51.246;6.850;2023-02-01T11:14:00;19.70;35.40
6986;DHT22;3533;51.246;6.850;2023-02-01T11:16:36;19.70;35.40
6986;DHT22;3533;51.246;6.850;2023-02-01T11:19:02;19.70;35.40
6986;DHT22;3533;51.246;6.850;2023-02-01T11:21:28;19.70;35.50
6986;DHT22;3533;51.246;6.850;2023-02-01T11:23:54;19.70;35.40
6986;DHT22;3533;51.246;6.850;2023-02-01T11:26:25;19.70;35.40
6986;DHT22;3533;51.246;6.850;2023-02-01T11:29:03;19.70;35.50
6986;DHT22;3533;51.246;6.850;2023-02-01T11:31:29;19.70;35.50
6986;DHT22;3533;51.246;6.850;2023-02-01T11:33:59;19.60;35.40
6986;DHT22;3533;51.246;6.850;2023-02-01T11:36:28;19.60;35.30
6986;DHT22;3533;51.246;6.850;2023-02-01T11:39:20;19.70;35.50
6986;DHT22;3533;51.246;6.850;2023-02-01T11:42:05;19.60;35.40
6986;DHT22;3533;51.246;6.850;2023-02-01T11:44:45;19.60;35.40
6986;DHT22;3533;51.246;6.850;2023-02-01T11:47:29;19.60;35.40
6986;DHT22;3533;51.246;6.850;2023-02-01T11:49:59;19.60;35.40
6986;DHT22;3533;51.246;6.850;2023-02-01T11:55:56;19.60;35.40
6986;DHT22;3533;51.246;6.850;2023-02-01T12:05:02;19.60;35.50
6986;DHT22;3533;51.246;6.850;2023-02-01T12:30:15;19.60;35.50
6986;DHT22;3533;51.246;6.850;2023-02-01T12:35:44;19.60;35.50
6986;DHT22;3533;51.246;6.850;2023-02-01T12:47:13;19.50;36.20
6986;DHT22;3533;51.246;6.850;2023-02-01T12:49:55;19.60;35.50
6986;DHT22;3533;51.246;6.850;2023-02-01T12:52:34;19.50;35.50
6986;DHT22;3533;51.246;6.850;2023-02-01T12:55:21;19.50;35.50
6986;DHT22;3533;51.246;6.850;2023-02-01T13:00:43;19.50;35.40
6986;DHT22;3533;51.246;6.850;2023-02-01T13:03:18;19.50;35.50
6986;DHT22;3533;51.246;6.850;2023-02-01T13:06:05;19.50;35.50
6986;DHT22;3533;51.246;6.850;2023-02-01T13:08:50;19.50;35.40
6986;DHT22;3533;51.246;6.850;2023-02-01T13:11:29;19.50;35.40
6986;DHT22;3533;51.246;6.850;2023-02-01T13:16:44;19.50;35.50
6986;DHT22;3533;51.246;6.850;2023-02-01T13:19:16;19.50;35.50
6986;DHT22;3533;51.246;6.850;2023-02-01T13:21:46;19.50;35.50
6986;DHT22;3533;51.246;6.850;2023-02-01T13:24:27;19.50;35.40
6986;DHT22;3533;51.246;6.850;2023-02-01T13:26:55;19.50;35.50
6986;DHT22;3533;51.246;6.850;2023-02-01T13:29:23;19.50;35.50
6986;DHT22;3533;51.246;6.850;2023-02-01T13:37:54;19.50;35.40
6986;DHT22;3533;51.246;6.850;2023-02-01T13:40:30;19.50;35.40
6986;DHT22;3533;51.246;6.850;2023-02-01T13:43:06;19.50;35.50
6986;DHT22;3533;51.246;6.850;2023-02-01T13:45:36;19.50;35.50
6986;DHT22;3533;51.246;6.850;2023-02-01T13:48:05;19.50;35.40
6986;DHT22;3533;51.246;6.850;2023-02-01T13:50:34;19.50;35.40
6986;DHT22;3533;51.246;6.850;2023-02-01T13:58:39;19.50;35.40
6986;DHT22;3533;51.246;6.850;2023-02-01T14:04:04;19.50;35.50
6986;DHT22;3533;51.246;6.850;2023-02-01T14:11:45;19.50;35.40
6986;DHT22;3533;51.246;6.850;2023-02-01T14:19:28;19.60;35.60
6986;DHT22;3533;51.246;6.850;2023-02-01T14:21:56;19.50;35.50
6986;DHT22;3533;51.246;6.850;2023-02-01T14:24:25;19.50;35.50
6986;DHT22;3533;51.246;6.850;2023-02-01T14:26:52;19.50;35.50
6986;DHT22;3533;51.246;6.850;2023-02-01T14:29:37;19.50;35.50
6986;DHT22;3533;51.246;6.850;2023-02-01T14:34:48;19.50;35.50
6986;DHT22;3533;51.246;6.850;2023-02-01T14:44:40;19.50;35.60
6986;DHT22;3533;51.246;6.850;2023-02-01T14:47:26;19.50;35.50
6986;DHT22;3533;51.246;6.850;2023-02-01T14:52:30;19.50;35.50
6986;DHT22;3533;51.246;6.850;2023-02-01T14:55:02;19.50;35.50
6986;DHT22;3533;51.246;6.850;2023-02-01T14:57:29;19.50;35.50
6986;DHT22;3533;51.246;6.850;2023-02-01T15:00:04;19.50;35.50
6986;DHT22;3533;51.246;6.850;2023-02-01T15:02:34;19.50;35.50
6986;DHT22;3533;51.246;6.850;2023-02-01T15:05:01;19.50;35.50
6986;DHT22;3533;51.246;6.850;2023-02-01T15:07:27;19.50;35.50
6986;DHT22;3533;51.246;6.850;2023-02-01T15:09:56;19.50;35.50
6986;DHT22;3533;51.246;6.850;2023-02-01T15:12:25;19.50;35.50
6986;DHT22;3533;51.246;6.850;2023-02-01T15:15:18;19.50;35.40
6986;DHT22;3533;51.246;6.850;2023-02-01T15:17:57;19.50;35.40
6986;DHT22;3533;51.246;6.850;2023-02-01T15:20:28;19.50;35.40
6986;DHT22;3533;51.246;6.850;2023-02-01T15:23:05;19.50;35.40
6986;DHT22;3533;51.246;6.850;2023-02-01T15:25:38;19.40;35.30
6986;DHT22;3533;51.246;6.850;2023-02-01T15:28:04;19.40;35.40
6986;DHT22;3533;51.246;6.850;2023-02-01T15:30:33;19.40;35.30
6986;DHT22;3533;51.246;6.850;2023-02-01T15:33:08;19.40;35.40
6986;DHT22;3533;51.246;6.850;2023-02-01T15:35:44;19.40;35.40
6986;DHT22;3533;51.246;6.850;2023-02-01T15:41:19;19.40;35.30
6986;DHT22;3533;51.246;6.850;2023-02-01T15:46:32;19.40;35.30
6986;DHT22;3533;51.246;6.850;2023-02-01T15:48:59;19.40;35.30
6986;DHT22;3533;51.246;6.850;2023-02-01T15:51:28;19.30;35.20
6986;DHT22;3533;51.246;6.850;2023-02-01T15:54:00;19.30;35.20
6986;DHT22;3533;51.246;6.850;2023-02-01T15:56:28;19.30;35.10
6986;DHT22;3533;51.246;6.850;2023-02-01T15:59:00;19.30;35.10
6986;DHT22;3533;51.246;6.850;2023-02-01T16:01:26;19.30;35.10
6986;DHT22;3533;51.246;6.850;2023-02-01T16:04:19;19.30;35.10
6986;DHT22;3533;51.246;6.850;2023-02-01T16:06:56;19.30;35.10
6986;DHT22;3533;51.246;6.850;2023-02-01T16:09:24;19.30;35.10
6986;DHT22;3533;51.246;6.850;2023-02-01T16:11:58;19.30;35.10
6986;DHT22;3533;51.246;6.850;2023-02-01T16:14:24;19.30;35.10
6986;DHT22;3533;51.246;6.850;2023-02-01T16:16:52;19.30;35.10
6986;DHT22;3533;51.246;6.850;2023-02-01T16:19:18;19.30;35.00
6986;DHT22;3533;51.246;6.850;2023-02-01T16:21:44;19.30;35.10
6986;DHT22;3533;51.246;6.850;2023-02-01T16:24:10;19.30;35.00
6986;DHT22;3533;51.246;6.850;2023-02-01T16:26:36;19.30;34.90
6986;DHT22;3533;51.246;6.850;2023-02-01T16:29:03;19.30;35.00
6986;DHT22;3533;51.246;6.850;2023-02-01T16:31:33;19.30;34.90
6986;DHT22;3533;51.246;6.850;2023-02-01T16:33:59;19.30;34.90
6986;DHT22;3533;51.246;6.850;2023-02-01T16:36:25;19.30;34.90
6986;DHT22;3533;51.246;6.850;2023-02-01T16:38:53;19.40;35.00
6986;DHT22;3533;51.246;6.850;2023-02-01T16:41:21;19.40;35.00
6986;DHT22;3533;51.246;6.850;2023-02-01T16:43:51;19.40;35.10
6986;DHT22;3533;51.246;6.850;2023-02-01T16:46:20;19.40;35.00
6986;DHT22;3533;51.246;6.850;2023-02-01T16:49:01;19.40;35.10
6986;DHT22;3533;51.246;6.850;2023-02-01T16:51:32;19.40;35.10
6986;DHT22;3533;51.246;6.850;2023-02-01T16:54:01;19.40;35.10
6986;DHT22;3533;51.246;6.850;2023-02-01T16:56:32;19.40;35.10
6986;DHT22;3533;51.246;6.850;2023-02-01T16:58:58;19.40;35.20
6986;DHT22;3533;51.246;6.850;2023-02-01T17:01:24;19.40;35.10
6986;DHT22;3533;51.246;6.850;2023-02-01T17:03:50;19.40;35.20
6986;DHT22;3533;51.246;6.850;2023-02-01T17:06:19;19.40;35.10
6986;DHT22;3533;51.246;6.850;2023-02-01T17:08:54;19.40;35.10
6986;DHT22;3533;51.246;6.850;2023-02-01T17:11:20;19.40;35.10
6986;DHT22;3533;51.246;6.850;2023-02-01T17:13:46;19.40;35.10
6986;DHT22;3533;51.246;6.850;2023-02-01T17:18:57;19.50;35.10
6986;DHT22;3533;51.246;6.850;2023-02-01T17:21:25;19.40;35.00
6986;DHT22;3533;51.246;6.850;2023-02-01T17:23:52;19.50;35.10
6986;DHT22;3533;51.246;6.850;2023-02-01T17:26:18;19.40;35.00
6986;DHT22;3533;51.246;6.850;2023-02-01T17:28:43;19.40;35.10
6986;DHT22;3533;51.246;6.850;2023-02-01T17:31:13;19.50;35.10
6986;DHT22;3533;51.246;6.850;2023-02-01T17:33:39;19.50;35.00
6986;DHT22;3533;51.246;6.850;2023-02-01T17:36:05;19.50;35.00
6986;DHT22;3533;51.246;6.850;2023-02-01T17:38:32;19.50;35.00
6986;DHT22;3533;51.246;6.850;2023-02-01T17:40:58;19.50;35.00
6986;DHT22;3533;51.246;6.850;2023-02-01T17:43:25;19.50;35.00
6986;DHT22;3533;51.246;6.850;2023-02-01T17:46:04;19.50;34.90
6986;DHT22;3533;51.246;6.850;2023-02-01T17:48:30;19.50;35.00
6986;DHT22;3533;51.246;6.850;2023-02-01T17:50:56;19.50;34.90
6986;DHT22;3533;51.246;6.850;2023-02-01T17:53:25;19.50;34.90
6986;DHT22;3533;51.246;6.850;2023-02-01T17:55:51;19.50;35.00
6986;DHT22;3533;51.246;6.850;2023-02-01T17:58:17;19.50;35.20
6986;DHT22;3533;51.246;6.850;2023-02-01T18:00:44;19.50;34.90
6986;DHT22;3533;51.246;6.850;2023-02-01T18:03:23;19.50;34.90
6986;DHT22;3533;51.246;6.850;2023-02-01T18:05:50;19.50;34.80
6986;DHT22;3533;51.246;6.850;2023-02-01T18:08:18;19.50;34.80
6986;DHT22;3533;51.246;6.850;2023-02-01T18:10:47;19.50;34.80
6986;DHT22;3533;51.246;6.850;2023-02-01T18:13:13;19.50;34.80
6986;DHT22;3533;51.246;6.850;2023-02-01T18:15:39;19.50;34.80
6986;DHT22;3533;51.246;6.850;2023-02-01T18:18:05;19.50;34.90
6986;DHT22;3533;51.246;6.850;2023-02-01T18:20:31;19.50;34.90
6986;DHT22;3533;51.246;6.850;2023-02-01T18:22:57;19.50;34.90
6986;DHT22;3533;51.246;6.850;2023-02-01T18:25:27;19.50;34.90
6986;DHT22;3533;51.246;6.850;2023-02-01T18:27:55;19.50;34.90
6986;DHT22;3533;51.246;6.850;2023-02-01T18:30:23;19.50;34.90
6986;DHT22;3533;51.246;6.850;2023-02-01T18:32:50;19.50;35.00
6986;DHT22;3533;51.246;6.850;2023-02-01T18:35:22;19.50;35.00
6986;DHT22;3533;51.246;6.850;2023-02-01T18:37:48;19.50;35.00
6986;DHT22;3533;51.246;6.850;2023-02-01T18:40:20;19.50;35.10
6986;DHT22;3533;51.246;6.850;2023-02-01T18:42:46;19.50;35.10